Time;durP1;ratioP1;P1;durP2;ratioP2;P2;SDS_P1;SDS_P2;PMS_P1;PMS_P2;Temp;Humidity;BMP_temperature;BMP_pressure;BME280_temperature;BME280_humidity;BME280_pressure;Samples;Min_cycle;Max_cycle;Signal;HPM_P1;HPM_P2
2023/12/07 00:00:29;;;;;;;36.97;16.73;;;;;;;;;;5075708;28;20656;-78
2023/12/07 00:03:16;;;;;;;39.80;16.90;;;;;;;;;;5076266;28;20727;-77
2023/12/07 00:05:44;;;;;;;44.13;16.67;;;;;;;;;;5077051;28;20637;-79
2023/12/07 00:08:11;;;;;;;55.07;19.77;;;;;;;;;;5076896;28;20199;-79
2023/12/07 00:10:38;;;;;;;38.43;16.80;;;;;;;;;;5075434;28;20252;-79
2023/12/07 00:13:05;;;;;;;40.10;16.53;;;;;;;;;;5076715;28;20208;-79
2023/12/07 00:15:32;;;;;;;39.13;17.03;;;;;;;;;;5076466;28;20195;-77
2023/12/07 00:18:00;;;;;;;39.50;17.13;;;;;;;;;;5076460;28;20227;-77
2023/12/07 00:20:27;;;;;;;41.57;17.43;;;;;;;;;;5076416;28;20188;-78
2023/12/07 00:22:55;;;;;;;43.53;18.03;;;;;;;;;;5076764;28;20203;-77
2023/12/07 00:25:22;;;;;;;42.07;17.33;;;;;;;;;;5076452;28;20761;-78
2023/12/07 00:27:49;;;;;;;39.23;16.63;;;;;;;;;;5075635;28;20255;-77
2023/12/07 00:30:16;;;;;;;43.87;18.57;;;;;;;;;;5076180;28;20210;-78
2023/12/07 00:32:43;;;;;;;45.70;18.17;;;;;;;;;;5076622;28;20206;-78
2023/12/07 00:35:11;;;;;;;43.30;17.33;;;;;;;;;;5075443;28;20194;-77
2023/12/07 00:37:38;;;;;;;46.40;18.70;;;;;;;;;;5076610;28;20275;-77
2023/12/07 00:40:05;;;;;;;38.53;17.00;;;;;;;;;;5075228;28;20652;-78
2023/12/07 00:42:32;;;;;;;50.13;19.70;;;;;;;;;;5076417;28;20283;-77
2023/12/07 00:45:00;;;;;;;41.73;18.07;;;;;;;;;;5076436;28;20652;-77
2023/12/07 00:47:27;;;;;;;54.83;19.43;;;;;;;;;;5076009;28;20231;-77
2023/12/07 00:49:54;;;;;;;43.63;17.13;;;;;;;;;;5075962;28;20203;-77
2023/12/07 00:52:21;;;;;;;44.17;17.83;;;;;;;;;;5076112;28;20195;-77
2023/12/07 00:54:49;;;;;;;52.23;19.33;;;;;;;;;;5075147;28;20652;-77
2023/12/07 00:57:16;;;;;;;44.33;18.33;;;;;;;;;;5075912;28;20250;-77
2023/12/07 00:59:43;;;;;;;51.20;19.50;;;;;;;;;;5076142;28;20600;-77
2023/12/07 01:02:10;;;;;;;42.43;18.83;;;;;;;;;;5076118;28;20226;-77
2023/12/07 01:04:37;;;;;;;47.03;19.57;;;;;;;;;;5075055;28;20535;-78
2023/12/07 01:07:05;;;;;;;38.83;17.63;;;;;;;;;;5075872;28;20238;-78
2023/12/07 01:09:33;;;;;;;42.00;18.77;;;;;;;;;;5075636;28;20199;-77
2023/12/07 01:12:00;;;;;;;44.17;19.90;;;;;;;;;;5075854;28;20578;-77
2023/12/07 01:14:27;;;;;;;41.47;18.97;;;;;;;;;;5075684;28;20210;-78
2023/12/07 01:16:54;;;;;;;45.57;18.60;;;;;;;;;;5075639;28;20207;-77
2023/12/07 01:19:21;;;;;;;45.77;19.23;;;;;;;;;;5075950;28;20195;-77
2023/12/07 01:21:48;;;;;;;43.97;20.10;;;;;;;;;;5075841;28;20195;-77
2023/12/07 01:24:15;;;;;;;51.93;19.50;;;;;;;;;;5075258;28;20227;-77
2023/12/07 01:26:43;;;;;;;41.27;19.27;;;;;;;;;;5075659;28;20298;-77
2023/12/07 01:29:10;;;;;;;45.27;19.97;;;;;;;;;;5075520;28;20203;-77
2023/12/07 01:31:37;;;;;;;45.17;20.00;;;;;;;;;;5075464;28;20321;-77
2023/12/07 01:34:04;;;;;;;64.27;21.43;;;;;;;;;;5075440;28;20555;-78
2023/12/07 01:36:31;;;;;;;44.37;18.50;;;;;;;;;;5075431;28;20195;-78
2023/12/07 01:38:59;;;;;;;55.87;22.17;;;;;;;;;;5075183;28;20219;-79
2023/12/07 01:41:27;;;;;;;51.27;21.53;;;;;;;;;;5075178;28;20210;-78
2023/12/07 01:43:54;;;;;;;52.10;20.77;;;;;;;;;;5075248;28;20199;-78
2023/12/07 01:46:21;;;;;;;52.63;20.43;;;;;;;;;;5075164;28;20196;-78
2023/12/07 01:48:49;;;;;;;50.50;20.93;;;;;;;;;;5075187;28;20203;-77
2023/12/07 01:51:17;;;;;;;46.40;20.67;;;;;;;;;;5075099;28;20208;-77
2023/12/07 01:53:44;;;;;;;44.40;20.27;;;;;;;;;;5075001;28;20210;-78
2023/12/07 01:56:12;;;;;;;47.97;20.37;;;;;;;;;;5075193;28;20203;-78
2023/12/07 01:58:39;;;;;;;46.77;19.07;;;;;;;;;;5074994;28;20218;-78
2023/12/07 02:01:07;;;;;;;46.93;21.90;;;;;;;;;;5056984;28;20199;-78
2023/12/07 02:03:34;;;;;;;50.60;20.97;;;;;;;;;;5074905;28;20203;-78
2023/12/07 02:06:01;;;;;;;53.90;21.87;;;;;;;;;;5073295;28;20191;-78
2023/12/07 02:08:28;;;;;;;46.97;20.10;;;;;;;;;;5057202;28;20191;-77
2023/12/07 02:10:55;;;;;;;47.87;19.83;;;;;;;;;;5056728;28;20241;-79
2023/12/07 02:13:23;;;;;;;44.03;19.07;;;;;;;;;;5073447;28;20199;-79
2023/12/07 02:15:53;;;;;;;54.47;21.50;;;;;;;;;;5074348;28;20187;-79
2023/12/07 02:18:36;;;;;;;51.97;20.53;;;;;;;;;;5065160;28;20220;-80
2023/12/07 02:21:23;;;;;;;47.30;20.93;;;;;;;;;;5052788;28;20192;-78
2023/12/07 02:23:53;;;;;;;48.07;20.93;;;;;;;;;;5053392;28;20196;-78
2023/12/07 02:26:21;;;;;;;49.53;21.43;;;;;;;;;;5052538;28;20204;-78
2023/12/07 02:28:49;;;;;;;54.73;22.40;;;;;;;;;;5053981;28;20192;-78
2023/12/07 02:31:16;;;;;;;51.43;21.93;;;;;;;;;;5054152;28;20265;-78
2023/12/07 02:33:43;;;;;;;55.53;21.93;;;;;;;;;;5054234;28;20692;-78
2023/12/07 02:36:11;;;;;;;50.73;21.73;;;;;;;;;;5053087;28;20219;-78
2023/12/07 02:38:39;;;;;;;48.63;20.00;;;;;;;;;;5053818;28;20281;-78
2023/12/07 02:41:07;;;;;;;58.83;21.93;;;;;;;;;;5052951;28;20227;-78
2023/12/07 02:43:34;;;;;;;48.57;21.43;;;;;;;;;;5052790;28;20208;-78
2023/12/07 02:46:01;;;;;;;45.83;20.77;;;;;;;;;;5052567;28;20203;-78
2023/12/07 02:48:30;;;;;;;53.90;22.13;;;;;;;;;;5053586;28;20257;-78
2023/12/07 02:50:57;;;;;;;54.93;21.17;;;;;;;;;;5053881;28;20188;-77
2023/12/07 02:53:24;;;;;;;48.63;22.17;;;;;;;;;;5053838;28;20188;-80
2023/12/07 02:55:51;;;;;;;48.77;21.83;;;;;;;;;;5053519;28;20196;-80
2023/12/07 02:58:19;;;;;;;56.30;22.93;;;;;;;;;;5053645;28;20242;-77
2023/12/07 03:00:45;;;;;;;51.47;20.97;;;;;;;;;;5053626;28;20210;-77
2023/12/07 03:03:13;;;;;;;47.47;21.20;;;;;;;;;;5054178;28;20196;-77
2023/12/07 03:05:40;;;;;;;53.43;21.60;;;;;;;;;;5053442;28;20254;-78
2023/12/07 03:08:07;;;;;;;52.97;21.97;;;;;;;;;;5053682;28;20258;-77
2023/12/07 03:10:34;;;;;;;52.97;22.87;;;;;;;;;;5053710;28;20274;-77
2023/12/07 03:13:02;;;;;;;48.87;20.47;;;;;;;;;;5053745;28;20211;-78
2023/12/07 03:15:29;;;;;;;47.37;21.70;;;;;;;;;;5053207;28;20204;-82
2023/12/07 03:17:56;;;;;;;51.87;21.57;;;;;;;;;;5053065;28;20657;-77
2023/12/07 03:20:23;;;;;;;50.23;22.40;;;;;;;;;;5053249;28;20211;-77
2023/12/07 03:22:50;;;;;;;44.17;20.17;;;;;;;;;;5053832;28;20200;-78
2023/12/07 03:25:18;;;;;;;50.07;21.20;;;;;;;;;;5053480;28;20318;-77
2023/12/07 03:27:45;;;;;;;45.40;20.47;;;;;;;;;;5051989;28;20215;-77
2023/12/07 03:30:12;;;;;;;54.63;22.80;;;;;;;;;;5053115;28;20212;-78
2023/12/07 03:32:40;;;;;;;55.67;21.80;;;;;;;;;;5053327;28;20245;-78
2023/12/07 03:35:07;;;;;;;50.20;21.43;;;;;;;;;;5053391;28;20200;-78
2023/12/07 03:37:34;;;;;;;48.60;22.07;;;;;;;;;;5052096;28;20203;-78
2023/12/07 03:40:04;;;;;;;54.77;20.90;;;;;;;;;;5053280;28;20570;-78
2023/12/07 03:42:31;;;;;;;51.60;21.67;;;;;;;;;;5035798;28;20200;-78
2023/12/07 03:45:18;;;;;;;55.67;22.27;;;;;;;;;;5053608;28;20207;-77
2023/12/07 03:47:45;;;;;;;44.27;21.50;;;;;;;;;;5053287;28;20196;-78
2023/12/07 03:50:12;;;;;;;50.73;21.27;;;;;;;;;;5052946;28;20299;-78
2023/12/07 03:52:40;;;;;;;43.53;20.70;;;;;;;;;;5053078;28;20200;-78
2023/12/07 03:55:08;;;;;;;43.50;20.73;;;;;;;;;;5053048;28;20207;-78
2023/12/07 03:57:35;;;;;;;44.10;19.90;;;;;;;;;;5053287;28;20196;-78
2023/12/07 04:00:04;;;;;;;46.80;21.77;;;;;;;;;;5053254;28;20665;-78
2023/12/07 04:02:33;;;;;;;47.00;20.83;;;;;;;;;;5051718;28;20254;-78
2023/12/07 04:05:01;;;;;;;44.60;21.57;;;;;;;;;;5053039;28;20254;-78
2023/12/07 04:07:32;;;;;;;49.80;21.03;;;;;;;;;;5051718;28;20203;-78
2023/12/07 04:09:59;;;;;;;43.47;20.93;;;;;;;;;;5053285;28;20283;-78
2023/12/07 04:12:26;;;;;;;54.83;21.80;;;;;;;;;;5052880;28;20204;-78
2023/12/07 04:14:53;;;;;;;51.07;20.23;;;;;;;;;;5053095;28;20219;-78
2023/12/07 04:17:21;;;;;;;48.17;21.97;;;;;;;;;;5052741;28;20200;-78
2023/12/07 04:19:48;;;;;;;53.30;22.10;;;;;;;;;;5052633;28;20707;-78
2023/12/07 04:22:15;;;;;;;49.57;21.37;;;;;;;;;;5052932;28;20200;-79
2023/12/07 04:24:42;;;;;;;47.53;20.20;;;;;;;;;;5052736;28;20228;-79
2023/12/07 04:27:10;;;;;;;47.13;21.27;;;;;;;;;;5051671;28;20556;-79
2023/12/07 04:29:37;;;;;;;43.63;21.13;;;;;;;;;;5056006;28;20214;-79
2023/12/07 04:32:06;;;;;;;48.13;20.63;;;;;;;;;;5056320;28;20703;-79
2023/12/07 04:34:33;;;;;;;46.23;20.53;;;;;;;;;;5054898;28;20204;-79
2023/12/07 04:37:00;;;;;;;51.10;22.67;;;;;;;;;;5056720;28;20204;-79
2023/12/07 04:39:28;;;;;;;44.13;21.17;;;;;;;;;;5056105;28;20228;-80
2023/12/07 04:41:55;;;;;;;50.83;22.57;;;;;;;;;;5055063;28;20688;-79
2023/12/07 04:44:24;;;;;;;53.00;21.97;;;;;;;;;;5055984;28;20291;-79
2023/12/07 04:46:51;;;;;;;52.50;21.67;;;;;;;;;;5056179;28;20271;-79
2023/12/07 04:49:18;;;;;;;48.67;21.73;;;;;;;;;;5067904;28;20663;-79
2023/12/07 04:51:46;;;;;;;46.80;20.97;;;;;;;;;;5096442;28;20199;-79
2023/12/07 04:54:16;;;;;;;47.00;22.37;;;;;;;;;;5085498;28;20596;-79
2023/12/07 04:56:46;;;;;;;50.00;22.10;;;;;;;;;;5076142;28;20188;-79
2023/12/07 04:59:13;;;;;;;47.90;21.43;;;;;;;;;;5074813;28;20577;-79
2023/12/07 05:01:41;;;;;;;45.77;20.50;;;;;;;;;;5075787;28;20207;-79
2023/12/07 05:04:08;;;;;;;51.00;22.70;;;;;;;;;;5079583;28;20207;-80
2023/12/07 05:06:35;;;;;;;47.33;20.37;;;;;;;;;;5076286;28;20243;-79
2023/12/07 05:09:03;;;;;;;50.40;22.57;;;;;;;;;;5065610;28;20251;-79
2023/12/07 05:11:30;;;;;;;53.30;21.50;;;;;;;;;;5067213;28;20236;-78
2023/12/07 05:13:57;;;;;;;51.87;21.87;;;;;;;;;;5070008;28;20272;-79
2023/12/07 05:16:24;;;;;;;50.03;23.37;;;;;;;;;;5062916;28;20235;-79
2023/12/07 05:18:51;;;;;;;53.00;21.97;;;;;;;;;;5071493;28;20220;-79
2023/12/07 05:21:19;;;;;;;52.03;22.70;;;;;;;;;;5064021;28;20247;-80
2023/12/07 05:23:46;;;;;;;50.57;21.27;;;;;;;;;;5075110;28;20215;-79
2023/12/07 05:26:14;;;;;;;54.83;22.73;;;;;;;;;;5074895;28;20649;-79
2023/12/07 05:28:41;;;;;;;59.53;24.47;;;;;;;;;;5074782;28;20223;-80
2023/12/07 05:31:09;;;;;;;57.73;23.37;;;;;;;;;;5074082;28;20727;-80
2023/12/07 05:33:36;;;;;;;68.73;24.93;;;;;;;;;;5075819;28;20215;-80
2023/12/07 05:36:03;;;;;;;47.10;22.87;;;;;;;;;;5073978;28;20239;-80
2023/12/07 05:38:30;;;;;;;54.93;23.27;;;;;;;;;;5074828;28;20224;-79
2023/12/07 05:40:58;;;;;;;62.90;24.83;;;;;;;;;;5074014;28;20704;-79
2023/12/07 05:43:25;;;;;;;56.40;24.53;;;;;;;;;;5074911;28;20758;-80
2023/12/07 05:45:53;;;;;;;61.03;23.90;;;;;;;;;;5074649;28;20235;-80
2023/12/07 05:48:19;;;;;;;52.77;23.20;;;;;;;;;;5074090;28;20254;-79
2023/12/07 05:50:47;;;;;;;53.90;23.40;;;;;;;;;;5072938;28;20700;-79
2023/12/07 05:53:14;;;;;;;49.87;22.77;;;;;;;;;;5073517;28;20223;-80
2023/12/07 05:55:41;;;;;;;55.07;23.73;;;;;;;;;;5063905;28;20216;-79
2023/12/07 05:58:08;;;;;;;53.07;22.57;;;;;;;;;;5062228;28;20306;-79
2023/12/07 06:00:37;;;;;;;54.93;22.90;;;;;;;;;;5060843;28;20269;-80
2023/12/07 06:03:05;;;;;;;49.53;21.83;;;;;;;;;;5045887;28;20688;-79
2023/12/07 06:05:32;;;;;;;59.67;22.17;;;;;;;;;;5064692;28;20211;-79
2023/12/07 06:07:59;;;;;;;52.40;23.43;;;;;;;;;;5072532;28;20239;-79
2023/12/07 06:10:27;;;;;;;50.50;22.17;;;;;;;;;;5062666;28;20212;-78
2023/12/07 06:12:56;;;;;;;52.57;22.00;;;;;;;;;;5062509;28;20312;-79
2023/12/07 06:15:23;;;;;;;52.90;23.73;;;;;;;;;;5059633;28;20599;-80
2023/12/07 06:17:50;;;;;;;54.87;23.10;;;;;;;;;;5066928;28;20231;-79
2023/12/07 06:20:18;;;;;;;46.37;21.43;;;;;;;;;;5068172;28;20269;-79
2023/12/07 06:22:45;;;;;;;53.57;22.30;;;;;;;;;;5064940;28;20191;-80
2023/12/07 06:25:12;;;;;;;57.83;22.83;;;;;;;;;;5065407;28;20576;-79
2023/12/07 06:27:39;;;;;;;49.17;21.30;;;;;;;;;;5063584;28;20203;-79
2023/12/07 06:30:07;;;;;;;47.17;21.03;;;;;;;;;;5065095;28;20191;-79
2023/12/07 06:32:34;;;;;;;51.90;22.37;;;;;;;;;;5064052;28;20238;-79
2023/12/07 06:35:04;;;;;;;47.03;21.93;;;;;;;;;;5073976;28;20680;-79
2023/12/07 06:37:32;;;;;;;51.77;22.93;;;;;;;;;;5074088;28;20203;-80
2023/12/07 06:40:00;;;;;;;47.37;22.53;;;;;;;;;;5056455;28;20229;-79
2023/12/07 06:42:27;;;;;;;46.80;20.63;;;;;;;;;;5073191;28;20279;-79
2023/12/07 06:44:54;;;;;;;60.53;26.10;;;;;;;;;;5074325;28;20195;-80
2023/12/07 06:47:21;;;;;;;89.57;30.63;;;;;;;;;;5073555;28;20199;-79
2023/12/07 06:49:48;;;;;;;66.83;25.90;;;;;;;;;;5073856;28;20206;-80
2023/12/07 06:52:19;;;;;;;61.63;23.53;;;;;;;;;;5073024;28;20195;-79
2023/12/07 06:54:46;;;;;;;60.83;24.50;;;;;;;;;;5064264;28;20192;-80
2023/12/07 06:57:13;;;;;;;66.47;25.07;;;;;;;;;;5054012;28;20192;-80
2023/12/07 06:59:41;;;;;;;102.33;37.80;;;;;;;;;;5053529;28;20227;-79
2023/12/07 07:02:08;;;;;;;90.00;41.37;;;;;;;;;;5052521;28;20204;-79
2023/12/07 07:04:35;;;;;;;160.43;63.37;;;;;;;;;;5053527;28;20196;-79
2023/12/07 07:07:02;;;;;;;256.73;109.53;;;;;;;;;;5052209;28;20650;-80
2023/12/07 07:09:30;;;;;;;59.70;28.60;;;;;;;;;;5053694;28;20238;-80
2023/12/07 07:11:57;;;;;;;68.97;31.73;;;;;;;;;;5052652;28;20204;-79
2023/12/07 07:14:24;;;;;;;89.10;44.03;;;;;;;;;;5053509;28;20196;-79
2023/12/07 07:16:52;;;;;;;59.07;30.10;;;;;;;;;;5063830;28;20199;-79
2023/12/07 07:19:19;;;;;;;54.43;27.13;;;;;;;;;;5073285;28;20223;-80
2023/12/07 07:21:46;;;;;;;56.10;24.67;;;;;;;;;;5060938;28;20199;-79
2023/12/07 07:24:14;;;;;;;62.73;25.43;;;;;;;;;;5053216;28;20242;-79
2023/12/07 07:26:41;;;;;;;45.33;20.03;;;;;;;;;;5053318;28;20196;-79
2023/12/07 07:29:08;;;;;;;57.63;22.03;;;;;;;;;;5053442;28;20196;-79
2023/12/07 07:31:36;;;;;;;63.47;27.93;;;;;;;;;;5053001;28;20215;-79
2023/12/07 07:34:04;;;;;;;85.27;32.70;;;;;;;;;;5053222;28;20250;-79
2023/12/07 07:36:32;;;;;;;140.20;39.53;;;;;;;;;;5051968;28;20546;-79
2023/12/07 07:38:59;;;;;;;94.43;31.60;;;;;;;;;;5053373;28;20216;-79
2023/12/07 07:41:26;;;;;;;162.30;49.20;;;;;;;;;;5052993;28;20290;-79
2023/12/07 07:43:53;;;;;;;188.03;70.20;;;;;;;;;;5053265;28;20257;-79
2023/12/07 07:46:20;;;;;;;234.03;82.80;;;;;;;;;;5052855;28;20258;-79
2023/12/07 07:48:48;;;;;;;167.13;55.60;;;;;;;;;;5052329;28;20204;-79
2023/12/07 07:51:15;;;;;;;227.17;71.63;;;;;;;;;;5053255;28;20198;-79
2023/12/07 07:53:43;;;;;;;174.97;53.77;;;;;;;;;;5053039;28;20196;-80
2023/12/07 07:56:10;;;;;;;191.03;63.27;;;;;;;;;;5059439;28;20195;-79
2023/12/07 07:58:37;;;;;;;173.67;53.83;;;;;;;;;;5073295;28;20199;-79
2023/12/07 08:01:04;;;;;;;100.77;34.43;;;;;;;;;;5072978;28;20203;-80
2023/12/07 08:03:32;;;;;;;140.90;46.33;;;;;;;;;;5071039;28;20188;-79
2023/12/07 08:05:59;;;;;;;138.33;47.50;;;;;;;;;;5057014;28;20651;-79
2023/12/07 08:08:26;;;;;;;152.27;55.50;;;;;;;;;;5056650;28;20250;-79
2023/12/07 08:10:53;;;;;;;186.23;61.50;;;;;;;;;;5056784;28;20223;-79
2023/12/07 08:13:23;;;;;;;159.73;55.90;;;;;;;;;;5056719;28;20196;-79
2023/12/07 08:15:50;;;;;;;86.07;35.63;;;;;;;;;;5056756;28;20200;-79
2023/12/07 08:18:19;;;;;;;95.30;39.10;;;;;;;;;;5056714;28;20192;-80
2023/12/07 08:20:46;;;;;;;72.37;31.93;;;;;;;;;;5056572;28;20220;-79
2023/12/07 08:23:14;;;;;;;69.30;30.37;;;;;;;;;;5056670;28;20188;-79
2023/12/07 08:25:41;;;;;;;65.07;29.13;;;;;;;;;;5056676;28;20582;-79
2023/12/07 08:28:09;;;;;;;45.93;21.03;;;;;;;;;;5055490;28;20203;-79
2023/12/07 08:30:36;;;;;;;73.07;30.07;;;;;;;;;;5055279;28;20719;-79
2023/12/07 08:33:03;;;;;;;50.80;23.97;;;;;;;;;;5055216;28;20661;-79
2023/12/07 08:35:31;;;;;;;50.10;24.00;;;;;;;;;;5073349;28;20249;-80
2023/12/07 08:37:58;;;;;;;53.87;24.27;;;;;;;;;;5076356;28;20200;-79
2023/12/07 08:40:25;;;;;;;47.23;21.90;;;;;;;;;;5076151;28;20219;-79
2023/12/07 08:42:54;;;;;;;46.63;21.50;;;;;;;;;;5075269;28;20217;-79
2023/12/07 08:45:22;;;;;;;44.87;20.10;;;;;;;;;;5076255;28;20703;-79
2023/12/07 08:47:49;;;;;;;57.50;23.90;;;;;;;;;;5075375;28;20202;-79
2023/12/07 08:50:16;;;;;;;38.07;19.37;;;;;;;;;;5076297;28;20687;-79
2023/12/07 08:52:44;;;;;;;50.07;23.93;;;;;;;;;;5075347;28;20525;-79
2023/12/07 08:55:19;;;;;;;34.43;18.43;;;;;;;;;;5075157;28;20191;-79
2023/12/07 08:57:47;;;;;;;40.83;18.97;;;;;;;;;;5076211;28;20199;-79
2023/12/07 09:00:14;;;;;;;47.47;21.50;;;;;;;;;;5075898;28;20219;-79
2023/12/07 09:02:41;;;;;;;46.17;20.20;;;;;;;;;;5076114;28;20202;-79
2023/12/07 09:05:15;;;;;;;37.20;19.30;;;;;;;;;;5075811;28;20187;-79
2023/12/07 09:07:42;;;;;;;40.23;18.97;;;;;;;;;;5075181;28;20210;-79
2023/12/07 09:10:10;;;;;;;42.10;19.83;;;;;;;;;;5074695;28;20199;-79
2023/12/07 09:12:37;;;;;;;46.17;20.80;;;;;;;;;;5075951;28;20196;-79
2023/12/07 09:15:09;;;;;;;39.93;18.77;;;;;;;;;;5058399;28;20238;-79
2023/12/07 09:17:38;;;;;;;37.73;18.97;;;;;;;;;;5074746;28;20636;-79
2023/12/07 09:20:14;;;;;;;41.20;19.90;;;;;;;;;;5074538;28;20249;-79
2023/12/07 09:22:45;;;;;;;42.13;19.53;;;;;;;;;;5075894;28;20624;-79
2023/12/07 09:25:15;;;;;;;37.73;19.50;;;;;;;;;;5074460;28;20234;-79
2023/12/07 09:27:44;;;;;;;41.63;19.30;;;;;;;;;;5058162;28;20203;-79
2023/12/07 09:30:36;;;;;;;37.63;18.00;;;;;;;;;;5075515;28;20199;-79
2023/12/07 09:33:03;;;;;;;36.87;18.70;;;;;;;;;;5075495;28;20215;-79
2023/12/07 09:35:31;;;;;;;35.00;16.53;;;;;;;;;;5075500;28;20249;-79
2023/12/07 09:37:58;;;;;;;46.77;19.47;;;;;;;;;;5074193;28;20256;-79
2023/12/07 09:40:27;;;;;;;36.83;18.00;;;;;;;;;;5074875;28;20219;-79
2023/12/07 09:42:55;;;;;;;45.43;20.63;;;;;;;;;;5075120;28;20199;-79
2023/12/07 09:45:22;;;;;;;40.27;19.23;;;;;;;;;;5073814;28;20207;-79
2023/12/07 09:47:53;;;;;;;40.07;17.43;;;;;;;;;;5075505;28;20208;-79
2023/12/07 09:50:21;;;;;;;39.83;19.43;;;;;;;;;;5073800;28;20207;-79
2023/12/07 09:52:50;;;;;;;37.97;17.50;;;;;;;;;;5073993;28;20210;-79
2023/12/07 09:55:30;;;;;;;38.77;18.43;;;;;;;;;;5073963;28;20290;-79
2023/12/07 09:57:58;;;;;;;36.43;18.57;;;;;;;;;;5074813;28;20261;-79
2023/12/07 10:00:25;;;;;;;35.47;18.90;;;;;;;;;;5074982;28;20215;-79
2023/12/07 10:02:53;;;;;;;47.63;21.63;;;;;;;;;;5075041;28;20207;-79
2023/12/07 10:05:21;;;;;;;173.43;71.70;;;;;;;;;;5074743;28;20726;-79
2023/12/07 10:07:50;;;;;;;79.57;35.57;;;;;;;;;;5059488;28;20196;-79
2023/12/07 10:10:18;;;;;;;104.07;49.87;;;;;;;;;;5053925;28;20665;-79
2023/12/07 10:12:50;;;;;;;51.53;25.07;;;;;;;;;;5053361;28;20215;-79
2023/12/07 10:15:19;;;;;;;55.80;25.20;;;;;;;;;;5053389;28;20257;-79
2023/12/07 10:17:52;;;;;;;45.83;21.93;;;;;;;;;;5054229;28;20598;-79
2023/12/07 10:20:24;;;;;;;79.80;32.67;;;;;;;;;;5053378;28;20220;-79
2023/12/07 10:23:04;;;;;;;146.27;48.70;;;;;;;;;;5054371;28;20200;-79
2023/12/07 10:25:32;;;;;;;124.03;42.87;;;;;;;;;;5058120;28;20223;-79
2023/12/07 10:28:00;;;;;;;222.67;76.67;;;;;;;;;;5073029;28;20207;-79
2023/12/07 10:30:27;;;;;;;223.23;68.00;;;;;;;;;;5074323;28;20217;-79
2023/12/07 10:32:54;;;;;;;76.37;28.70;;;;;;;;;;5072944;28;20203;-79
2023/12/07 10:35:21;;;;;;;124.30;41.70;;;;;;;;;;5074704;28;20209;-79
2023/12/07 10:37:49;;;;;;;54.67;22.87;;;;;;;;;;5074180;28;20191;-79
2023/12/07 10:40:16;;;;;;;101.57;36.37;;;;;;;;;;5073877;28;20253;-79
2023/12/07 10:42:47;;;;;;;75.77;29.87;;;;;;;;;;5072590;28;20203;-79
2023/12/07 10:45:15;;;;;;;62.50;25.00;;;;;;;;;;5068240;28;20697;-79
2023/12/07 10:47:43;;;;;;;92.37;36.07;;;;;;;;;;5073651;28;20203;-79
2023/12/07 10:50:13;;;;;;;60.37;23.70;;;;;;;;;;5072788;28;20188;-79
2023/12/07 10:52:45;;;;;;;51.93;22.47;;;;;;;;;;5072418;28;20636;-79
2023/12/07 10:55:18;;;;;;;67.07;26.60;;;;;;;;;;5072490;28;20245;-79
2023/12/07 10:57:46;;;;;;;52.00;21.90;;;;;;;;;;5068826;28;20250;-79
2023/12/07 11:00:14;;;;;;;218.87;45.23;;;;;;;;;;5052734;28;20243;-78
2023/12/07 11:02:42;;;;;;;176.63;38.87;;;;;;;;;;5073566;28;20187;-79
2023/12/07 11:05:10;;;;;;;323.13;75.30;;;;;;;;;;5072651;28;20195;-79
2023/12/07 11:07:57;;;;;;;112.90;36.70;;;;;;;;;;5073352;28;20211;-79
2023/12/07 11:10:38;;;;;;;175.47;50.23;;;;;;;;;;5073479;28;20199;-79
2023/12/07 11:13:13;;;;;;;131.30;38.47;;;;;;;;;;5052382;28;20200;-79
2023/12/07 11:15:40;;;;;;;147.23;41.83;;;;;;;;;;5052635;28;20282;-79
2023/12/07 11:18:08;;;;;;;218.40;53.23;;;;;;;;;;5052389;28;20214;-78
2023/12/07 11:20:43;;;;;;;51.37;19.47;;;;;;;;;;5059892;28;20834;-78
2023/12/07 11:23:11;;;;;;;55.77;20.50;;;;;;;;;;5073273;28;20252;-79
2023/12/07 11:25:38;;;;;;;36.37;17.20;;;;;;;;;;5071897;28;20238;-78
2023/12/07 11:28:07;;;;;;;89.37;28.77;;;;;;;;;;5073767;28;20207;-78
2023/12/07 11:30:37;;;;;;;79.63;28.03;;;;;;;;;;5073532;28;20663;-79
2023/12/07 11:33:05;;;;;;;125.53;41.20;;;;;;;;;;5072353;28;20199;-79
2023/12/07 11:35:33;;;;;;;46.50;20.10;;;;;;;;;;5072191;28;20202;-78
2023/12/07 11:38:02;;;;;;;103.43;34.70;;;;;;;;;;5071768;28;20203;-79
2023/12/07 11:40:31;;;;;;;59.30;23.67;;;;;;;;;;5064891;28;20289;-78
2023/12/07 11:43:04;;;;;;;88.60;29.30;;;;;;;;;;5052201;28;20215;-79
2023/12/07 11:45:42;;;;;;;33.40;15.27;;;;;;;;;;5052046;28;20196;-78
2023/12/07 11:48:11;;;;;;;27.63;14.87;;;;;;;;;;5053372;28;20214;-78
2023/12/07 11:51:02;;;;;;;28.73;14.33;;;;;;;;;;5066098;28;20199;-78
2023/12/07 11:53:36;;;;;;;36.43;16.97;;;;;;;;;;5073400;28;20282;-78
2023/12/07 11:56:08;;;;;;;31.37;16.13;;;;;;;;;;5072168;28;20210;-78
2023/12/07 11:58:37;;;;;;;36.03;14.97;;;;;;;;;;5073422;28;20204;-78
2023/12/07 12:01:08;;;;;;;32.57;15.60;;;;;;;;;;5071986;28;20250;-78
2023/12/07 12:03:37;;;;;;;31.53;14.00;;;;;;;;;;5073155;28;20590;-78
2023/12/07 12:06:05;;;;;;;29.13;14.27;;;;;;;;;;5057931;28;20196;-78
2023/12/07 12:08:34;;;;;;;32.47;16.03;;;;;;;;;;5052178;28;20429;-78
2023/12/07 12:11:01;;;;;;;32.17;16.37;;;;;;;;;;5052605;28;20222;-78
2023/12/07 12:13:29;;;;;;;32.07;15.17;;;;;;;;;;5053022;28;20200;-78
2023/12/07 12:15:57;;;;;;;31.37;14.20;;;;;;;;;;5052885;28;20242;-78
2023/12/07 12:18:30;;;;;;;29.77;13.93;;;;;;;;;;5053122;28;20197;-78
2023/12/07 12:20:59;;;;;;;25.97;13.27;;;;;;;;;;5051495;28;20697;-78
2023/12/07 12:23:26;;;;;;;46.80;17.53;;;;;;;;;;5052862;28;20204;-78
2023/12/07 12:25:54;;;;;;;34.07;16.17;;;;;;;;;;5051551;28;20241;-79
2023/12/07 12:28:23;;;;;;;28.20;13.43;;;;;;;;;;5052965;28;20189;-78
2023/12/07 12:30:51;;;;;;;25.30;13.27;;;;;;;;;;5051751;28;20215;-78
2023/12/07 12:33:18;;;;;;;43.20;17.93;;;;;;;;;;5052805;28;20204;-78
2023/12/07 12:35:45;;;;;;;28.97;14.67;;;;;;;;;;5056078;28;20586;-78
2023/12/07 12:38:13;;;;;;;31.10;14.80;;;;;;;;;;5072880;28;20199;-78
2023/12/07 12:40:54;;;;;;;29.73;14.43;;;;;;;;;;5072506;28;20222;-78
2023/12/07 12:43:22;;;;;;;37.90;15.97;;;;;;;;;;5069316;28;20558;-78
2023/12/07 12:45:50;;;;;;;30.03;14.90;;;;;;;;;;5051332;28;20536;-78
2023/12/07 12:48:32;;;;;;;27.23;12.90;;;;;;;;;;5052673;28;20532;-78
2023/12/07 12:51:12;;;;;;;26.00;13.47;;;;;;;;;;5054796;28;20653;-78
2023/12/07 12:53:45;;;;;;;29.13;12.37;;;;;;;;;;5056427;28;20241;-78
2023/12/07 12:56:18;;;;;;;27.97;13.07;;;;;;;;;;5056045;28;20199;-78
2023/12/07 12:58:45;;;;;;;31.97;13.47;;;;;;;;;;5054740;28;20199;-78
2023/12/07 13:01:13;;;;;;;28.90;12.63;;;;;;;;;;5055926;28;20235;-78
2023/12/07 13:03:40;;;;;;;29.30;14.03;;;;;;;;;;5056236;28;20204;-78
2023/12/07 13:06:07;;;;;;;34.87;14.67;;;;;;;;;;5055914;28;20196;-78
2023/12/07 13:08:35;;;;;;;24.77;12.90;;;;;;;;;;5055918;28;20211;-78
2023/12/07 13:11:02;;;;;;;28.20;12.37;;;;;;;;;;5055565;28;20247;-78
2023/12/07 13:13:29;;;;;;;28.33;12.93;;;;;;;;;;5055615;28;20549;-78
2023/12/07 13:15:56;;;;;;;29.40;14.73;;;;;;;;;;5055621;28;20258;-78
2023/12/07 13:18:24;;;;;;;38.13;16.57;;;;;;;;;;5055603;28;20641;-79
2023/12/07 13:20:51;;;;;;;34.43;15.33;;;;;;;;;;5055681;28;20605;-79
2023/12/07 13:23:22;;;;;;;30.60;14.70;;;;;;;;;;5055321;28;20192;-79
2023/12/07 13:25:49;;;;;;;31.07;13.93;;;;;;;;;;5055713;28;20235;-79
2023/12/07 13:28:17;;;;;;;26.10;13.63;;;;;;;;;;5055364;28;20545;-79
2023/12/07 13:30:44;;;;;;;30.13;14.23;;;;;;;;;;5074548;28;20195;-79
2023/12/07 13:33:11;;;;;;;31.30;13.93;;;;;;;;;;5069468;28;20187;-78
2023/12/07 13:35:54;;;;;;;26.80;13.50;;;;;;;;;;5059134;28;20283;-78
2023/12/07 13:38:23;;;;;;;24.80;12.47;;;;;;;;;;5066727;28;20292;-78
2023/12/07 13:40:50;;;;;;;93.27;37.77;;;;;;;;;;5059772;28;20223;-78
2023/12/07 13:43:18;;;;;;;310.50;114.23;;;;;;;;;;5060215;28;20228;-78
2023/12/07 13:45:45;;;;;;;131.37;49.47;;;;;;;;;;5068710;28;20222;-78
2023/12/07 13:48:13;;;;;;;159.03;57.20;;;;;;;;;;5058468;28;20297;-77
2023/12/07 13:50:41;;;;;;;54.43;21.47;;;;;;;;;;5063872;28;20246;-77
2023/12/07 13:53:12;;;;;;;55.97;22.83;;;;;;;;;;5064190;28;20238;-78
2023/12/07 13:55:39;;;;;;;68.20;25.93;;;;;;;;;;5065192;28;20299;-77
2023/12/07 13:58:07;;;;;;;88.20;27.97;;;;;;;;;;5062150;28;20262;-77
2023/12/07 14:00:34;;;;;;;111.13;37.93;;;;;;;;;;5063920;28;20207;-78
2023/12/07 14:03:01;;;;;;;187.80;62.60;;;;;;;;;;5064657;28;20223;-78
2023/12/07 14:05:28;;;;;;;104.43;39.10;;;;;;;;;;5059637;28;20216;-78
2023/12/07 14:07:56;;;;;;;168.53;59.17;;;;;;;;;;5065705;28;20236;-78
2023/12/07 14:10:23;;;;;;;36.40;14.50;;;;;;;;;;5062554;28;20697;-78
2023/12/07 14:12:50;;;;;;;67.20;21.77;;;;;;;;;;5062260;28;20261;-77
2023/12/07 14:15:17;;;;;;;43.40;16.20;;;;;;;;;;5066219;28;20273;-77
2023/12/07 14:17:57;;;;;;;143.37;34.60;;;;;;;;;;5058422;28;20228;-77
2023/12/07 14:20:27;;;;;;;158.27;37.30;;;;;;;;;;5058348;28;20237;-77
2023/12/07 14:23:15;;;;;;;42.60;15.70;;;;;;;;;;5064964;28;20235;-77